Time;durP1;ratioP1;P1;durP2;ratioP2;P2;SDS_P1;SDS_P2;PMS_P1;PMS_P2;Temp;Humidity;BMP_temperature;BMP_pressure;BME280_temperature;BME280_humidity;BME280_pressure;Samples;Min_cycle;Max_cycle;Signal;HPM_P1;HPM_P2
2023/11/30 00:01:35;;;;;;;21.70;8.60;;;;;;;;;;5025767;28;20620;-69
2023/11/30 00:04:00;;;;;;;17.60;9.47;;;;;;;;;;5026832;28;20220;-69
2023/11/30 00:06:25;;;;;;;17.93;9.10;;;;;;;;;;5033547;28;20193;-69
2023/11/30 00:08:53;;;;;;;23.03;10.40;;;;;;;;;;5034943;28;20182;-69
2023/11/30 00:11:18;;;;;;;17.70;9.13;;;;;;;;;;5037243;28;20250;-69
2023/11/30 00:13:44;;;;;;;20.47;9.50;;;;;;;;;;5030339;28;20247;-69
2023/11/30 00:16:10;;;;;;;24.70;9.73;;;;;;;;;;5031386;28;20204;-69
2023/11/30 00:18:35;;;;;;;20.70;9.63;;;;;;;;;;5032136;28;20214;-69
2023/11/30 00:21:00;;;;;;;18.80;9.67;;;;;;;;;;5030652;28;20243;-69
2023/11/30 00:23:26;;;;;;;22.50;10.10;;;;;;;;;;5033181;28;20234;-70
2023/11/30 00:25:51;;;;;;;19.23;9.13;;;;;;;;;;5032518;28;20241;-69
2023/11/30 00:28:17;;;;;;;17.93;9.50;;;;;;;;;;5036571;28;20268;-69
2023/11/30 00:30:42;;;;;;;23.03;9.80;;;;;;;;;;5032438;28;20273;-69
2023/11/30 00:33:07;;;;;;;21.13;10.40;;;;;;;;;;5030480;28;20239;-69
2023/11/30 00:35:33;;;;;;;18.17;9.00;;;;;;;;;;5035806;28;20190;-69
2023/11/30 00:37:58;;;;;;;17.17;9.10;;;;;;;;;;5034143;28;20270;-69
2023/11/30 00:40:23;;;;;;;23.20;10.37;;;;;;;;;;5030742;28;20495;-68
2023/11/30 00:42:49;;;;;;;24.93;10.30;;;;;;;;;;5034652;28;20630;-69
2023/11/30 00:45:14;;;;;;;26.77;10.03;;;;;;;;;;5034731;28;20340;-69
2023/11/30 00:47:40;;;;;;;20.70;9.77;;;;;;;;;;5036590;28;20598;-69
2023/11/30 00:50:06;;;;;;;21.83;10.47;;;;;;;;;;5036902;28;20202;-68
2023/11/30 00:52:31;;;;;;;17.80;9.97;;;;;;;;;;5033877;28;20190;-68
2023/11/30 00:54:56;;;;;;;23.37;10.80;;;;;;;;;;5030097;28;20186;-68
2023/11/30 00:57:22;;;;;;;22.00;10.70;;;;;;;;;;5032134;28;20289;-69
2023/11/30 00:59:47;;;;;;;21.47;10.60;;;;;;;;;;5032937;28;20217;-69
2023/11/30 01:02:12;;;;;;;21.60;11.37;;;;;;;;;;5033747;28;20209;-69
2023/11/30 01:04:41;;;;;;;19.07;9.77;;;;;;;;;;5038326;28;20209;-69
2023/11/30 01:07:06;;;;;;;22.73;11.07;;;;;;;;;;5025575;28;20273;-69
2023/11/30 01:09:32;;;;;;;20.20;11.37;;;;;;;;;;5029917;28;20273;-69
2023/11/30 01:11:57;;;;;;;19.53;10.23;;;;;;;;;;5034062;28;20581;-69
2023/11/30 01:14:23;;;;;;;20.90;11.13;;;;;;;;;;5029332;28;20181;-68
2023/11/30 01:16:48;;;;;;;20.20;11.00;;;;;;;;;;5039975;28;20200;-68
2023/11/30 01:19:14;;;;;;;19.07;9.93;;;;;;;;;;5039824;28;20252;-69
2023/11/30 01:21:39;;;;;;;22.73;10.97;;;;;;;;;;5028647;28;20194;-69
2023/11/30 01:24:05;;;;;;;23.17;10.77;;;;;;;;;;5040726;28;20292;-69
2023/11/30 01:26:31;;;;;;;20.57;9.90;;;;;;;;;;5032754;28;20188;-69
2023/11/30 01:28:56;;;;;;;20.27;10.33;;;;;;;;;;5029615;28;20281;-69
2023/11/30 01:31:21;;;;;;;22.67;11.43;;;;;;;;;;5032240;28;20193;-69
2023/11/30 01:33:47;;;;;;;23.00;12.30;;;;;;;;;;5034080;28;20205;-70
2023/11/30 01:36:13;;;;;;;25.90;13.17;;;;;;;;;;5023818;28;20288;-69
2023/11/30 01:38:38;;;;;;;26.40;12.37;;;;;;;;;;5028882;28;20497;-69
2023/11/30 01:41:04;;;;;;;28.07;12.80;;;;;;;;;;5034395;28;20200;-70
2023/11/30 01:43:29;;;;;;;27.30;14.17;;;;;;;;;;5035354;28;20212;-70
2023/11/30 01:45:55;;;;;;;28.57;13.13;;;;;;;;;;5026751;28;20190;-69
2023/11/30 01:48:21;;;;;;;24.33;13.20;;;;;;;;;;5031361;28;20212;-70
2023/11/30 01:50:46;;;;;;;27.83;13.83;;;;;;;;;;5035975;28;20276;-69
2023/11/30 01:53:13;;;;;;;29.83;13.30;;;;;;;;;;5020926;28;20235;-70
2023/11/30 01:55:40;;;;;;;28.30;13.77;;;;;;;;;;5029532;28;20197;-69
2023/11/30 01:58:06;;;;;;;36.13;14.23;;;;;;;;;;5035864;28;20193;-70
2023/11/30 02:00:31;;;;;;;31.80;13.63;;;;;;;;;;5030430;28;20193;-70
2023/11/30 02:02:58;;;;;;;30.10;13.37;;;;;;;;;;5031616;28;20193;-69
2023/11/30 02:05:24;;;;;;;28.47;13.83;;;;;;;;;;5033986;28;20224;-69
2023/11/30 02:07:49;;;;;;;32.73;13.80;;;;;;;;;;5029739;28;20201;-70
2023/11/30 02:10:15;;;;;;;30.23;13.60;;;;;;;;;;5038256;28;20190;-70
2023/11/30 02:12:40;;;;;;;24.00;12.43;;;;;;;;;;5032766;28;20817;-70
2023/11/30 02:15:06;;;;;;;28.10;12.80;;;;;;;;;;5037329;28;20248;-70
2023/11/30 02:17:32;;;;;;;30.33;13.80;;;;;;;;;;5035979;28;20202;-70
2023/11/30 02:19:57;;;;;;;31.60;13.77;;;;;;;;;;5033014;28;20181;-70
2023/11/30 02:22:22;;;;;;;30.73;13.33;;;;;;;;;;5033557;28;20201;-70
2023/11/30 02:24:48;;;;;;;26.93;13.07;;;;;;;;;;5030251;28;20210;-70
2023/11/30 02:27:13;;;;;;;24.63;12.40;;;;;;;;;;5041177;28;20197;-70
2023/11/30 02:29:38;;;;;;;31.67;13.73;;;;;;;;;;5031233;28;20190;-70
2023/11/30 02:32:04;;;;;;;33.03;14.10;;;;;;;;;;5032231;28;20190;-70
2023/11/30 02:34:29;;;;;;;28.97;13.70;;;;;;;;;;5026140;28;20670;-70
2023/11/30 02:36:55;;;;;;;26.60;13.63;;;;;;;;;;5026653;28;20259;-69
2023/11/30 02:39:20;;;;;;;29.90;13.77;;;;;;;;;;5027587;28;20213;-69
2023/11/30 02:41:46;;;;;;;28.70;14.70;;;;;;;;;;5037588;28;20186;-69
2023/11/30 02:44:11;;;;;;;27.23;14.13;;;;;;;;;;5040478;28;20758;-69
2023/11/30 02:46:36;;;;;;;31.10;14.93;;;;;;;;;;5034966;28;20209;-69
2023/11/30 02:49:02;;;;;;;39.00;16.00;;;;;;;;;;5032076;28;20226;-69
2023/11/30 02:51:27;;;;;;;40.90;16.87;;;;;;;;;;5026215;28;20251;-69
2023/11/30 02:53:52;;;;;;;33.83;16.20;;;;;;;;;;5031550;28;20179;-69
2023/11/30 02:56:18;;;;;;;40.77;16.20;;;;;;;;;;5029030;28;20193;-69
2023/11/30 02:58:43;;;;;;;43.67;17.70;;;;;;;;;;5037851;28;20212;-69
2023/11/30 03:01:09;;;;;;;34.67;15.07;;;;;;;;;;5038568;28;20189;-69
2023/11/30 03:03:34;;;;;;;43.60;16.23;;;;;;;;;;5034702;28;20207;-69
2023/11/30 03:05:59;;;;;;;44.23;16.00;;;;;;;;;;5031024;28;20189;-69
2023/11/30 03:08:25;;;;;;;42.83;15.63;;;;;;;;;;5034750;28;20661;-69
2023/11/30 03:10:51;;;;;;;47.53;18.77;;;;;;;;;;5024754;28;20183;-69
2023/11/30 03:13:16;;;;;;;52.63;17.83;;;;;;;;;;5036147;28;20535;-70
2023/11/30 03:15:44;;;;;;;73.83;19.40;;;;;;;;;;5031222;28;20628;-70
2023/11/30 03:18:10;;;;;;;52.37;18.33;;;;;;;;;;5030508;28;20304;-69
2023/11/30 03:20:35;;;;;;;54.13;20.43;;;;;;;;;;5029910;28;20269;-69
2023/11/30 03:23:01;;;;;;;69.87;21.67;;;;;;;;;;5037830;28;20194;-70
2023/11/30 03:25:27;;;;;;;63.03;20.53;;;;;;;;;;5034258;28;20204;-70
2023/11/30 03:27:52;;;;;;;81.93;23.43;;;;;;;;;;5028055;28;20186;-69
2023/11/30 03:30:18;;;;;;;70.67;21.60;;;;;;;;;;5028287;28;20205;-69
2023/11/30 03:32:43;;;;;;;131.40;24.57;;;;;;;;;;5029957;28;20190;-69
2023/11/30 03:35:08;;;;;;;67.33;20.70;;;;;;;;;;5011728;28;20186;-69
2023/11/30 03:37:34;;;;;;;141.03;25.00;;;;;;;;;;5031892;28;20212;-70
2023/11/30 03:40:00;;;;;;;81.43;23.63;;;;;;;;;;5039755;28;20217;-69
2023/11/30 03:42:25;;;;;;;77.17;19.23;;;;;;;;;;5029502;28;20186;-69
2023/11/30 03:44:51;;;;;;;61.63;20.33;;;;;;;;;;5030004;28;20709;-69
2023/11/30 03:47:16;;;;;;;85.43;21.63;;;;;;;;;;5035646;28;20235;-69
2023/11/30 03:49:41;;;;;;;91.83;23.13;;;;;;;;;;5033553;28;20198;-69
2023/11/30 03:52:07;;;;;;;109.87;24.93;;;;;;;;;;5034289;28;20197;-69
2023/11/30 03:54:32;;;;;;;83.43;23.40;;;;;;;;;;5034145;28;20622;-69
2023/11/30 03:56:57;;;;;;;83.83;24.97;;;;;;;;;;5036777;28;20193;-69
2023/11/30 03:59:23;;;;;;;82.07;23.50;;;;;;;;;;5019226;28;20186;-69
2023/11/30 04:01:48;;;;;;;123.17;25.33;;;;;;;;;;5035682;28;20190;-70
2023/11/30 04:04:14;;;;;;;69.10;25.03;;;;;;;;;;5025243;28;20221;-69
2023/11/30 04:06:39;;;;;;;67.80;25.03;;;;;;;;;;5032437;28;20182;-69
2023/11/30 04:09:06;;;;;;;76.07;24.80;;;;;;;;;;5035502;28;20356;-69
2023/11/30 04:11:32;;;;;;;158.47;28.57;;;;;;;;;;5031300;28;20228;-70
2023/11/30 04:14:07;;;;;;;73.97;24.67;;;;;;;;;;5039604;28;20469;-69
2023/11/30 04:16:34;;;;;;;67.63;24.07;;;;;;;;;;5025529;28;20255;-69
2023/11/30 04:19:00;;;;;;;77.10;24.07;;;;;;;;;;5035018;28;20205;-70
2023/11/30 04:21:25;;;;;;;78.17;24.57;;;;;;;;;;5017431;28;20183;-69
2023/11/30 04:23:51;;;;;;;116.37;25.70;;;;;;;;;;5035723;28;20317;-70
2023/11/30 04:26:16;;;;;;;162.77;27.87;;;;;;;;;;5044915;28;20193;-70
2023/11/30 04:28:42;;;;;;;153.50;28.93;;;;;;;;;;5043620;28;20515;-72
2023/11/30 04:31:08;;;;;;;118.63;26.20;;;;;;;;;;5035351;28;20272;-70
2023/11/30 04:33:33;;;;;;;78.47;25.03;;;;;;;;;;5036502;28;20250;-70
2023/11/30 04:35:58;;;;;;;83.13;24.30;;;;;;;;;;5030382;28;20276;-70
2023/11/30 04:38:24;;;;;;;79.33;25.57;;;;;;;;;;5025321;28;20195;-70
2023/11/30 04:40:49;;;;;;;71.93;24.43;;;;;;;;;;5020307;28;20274;-70
2023/11/30 04:43:14;;;;;;;69.90;23.37;;;;;;;;;;5029018;28;20205;-70
2023/11/30 04:45:40;;;;;;;84.67;26.70;;;;;;;;;;5028015;28;20190;-70
2023/11/30 04:48:05;;;;;;;83.93;26.57;;;;;;;;;;5031694;28;20292;-70
2023/11/30 04:50:31;;;;;;;121.37;27.00;;;;;;;;;;5027201;28;20648;-70
2023/11/30 04:52:56;;;;;;;132.40;29.13;;;;;;;;;;5026182;28;20195;-70
2023/11/30 04:55:22;;;;;;;124.17;27.23;;;;;;;;;;5028526;28;20186;-70
2023/11/30 04:57:48;;;;;;;241.53;32.27;;;;;;;;;;5029836;28;20178;-70
2023/11/30 05:00:14;;;;;;;117.10;27.33;;;;;;;;;;5030616;28;20199;-70
2023/11/30 05:02:50;;;;;;;99.23;25.83;;;;;;;;;;5039287;28;20193;-71
2023/11/30 05:05:16;;;;;;;90.60;25.73;;;;;;;;;;5026746;28;20255;-71
2023/11/30 05:07:41;;;;;;;161.80;29.10;;;;;;;;;;5029911;28;20222;-71
2023/11/30 05:10:07;;;;;;;87.27;25.93;;;;;;;;;;5027329;28;20189;-71
2023/11/30 05:12:32;;;;;;;60.77;23.07;;;;;;;;;;5036894;28;20247;-71
2023/11/30 05:14:57;;;;;;;75.50;24.77;;;;;;;;;;5031923;28;20182;-71
2023/11/30 05:17:23;;;;;;;107.93;27.93;;;;;;;;;;5040036;28;20331;-70
2023/11/30 05:19:48;;;;;;;77.07;27.40;;;;;;;;;;5035007;28;20328;-71
2023/11/30 05:22:14;;;;;;;115.10;28.47;;;;;;;;;;5044563;28;20194;-71
2023/11/30 05:24:39;;;;;;;92.60;26.87;;;;;;;;;;5030340;28;20218;-71
2023/11/30 05:27:04;;;;;;;72.37;25.17;;;;;;;;;;5017494;28;20376;-71
2023/11/30 05:29:30;;;;;;;64.30;23.60;;;;;;;;;;5019873;28;20361;-71
2023/11/30 05:31:55;;;;;;;97.13;27.50;;;;;;;;;;5032092;28;20185;-71
2023/11/30 05:34:21;;;;;;;85.10;25.67;;;;;;;;;;5035044;28;20179;-71
2023/11/30 05:36:46;;;;;;;72.80;25.40;;;;;;;;;;5037037;28;20193;-71
2023/11/30 05:39:13;;;;;;;74.37;25.37;;;;;;;;;;5027129;28;20564;-71
2023/11/30 05:41:39;;;;;;;103.30;26.07;;;;;;;;;;5025593;28;20189;-71
2023/11/30 05:44:04;;;;;;;77.67;25.73;;;;;;;;;;5032256;28;20284;-71
2023/11/30 05:46:29;;;;;;;72.50;25.63;;;;;;;;;;5029862;28;20494;-71
2023/11/30 05:48:56;;;;;;;100.17;25.57;;;;;;;;;;5045925;28;20712;-71
2023/11/30 05:51:21;;;;;;;70.37;25.13;;;;;;;;;;5033900;28;20194;-70
2023/11/30 05:53:46;;;;;;;54.60;23.30;;;;;;;;;;5023843;28;20399;-70
2023/11/30 05:56:12;;;;;;;81.10;24.13;;;;;;;;;;5035463;28;20731;-71
2023/11/30 05:58:37;;;;;;;60.43;24.87;;;;;;;;;;5027233;28;20211;-70
2023/11/30 06:01:03;;;;;;;73.07;25.23;;;;;;;;;;5023566;28;20217;-71
2023/11/30 06:03:29;;;;;;;62.93;25.77;;;;;;;;;;5023394;28;20224;-71
2023/11/30 06:05:54;;;;;;;72.17;25.87;;;;;;;;;;5020990;28;20533;-71
2023/11/30 06:08:20;;;;;;;78.03;26.40;;;;;;;;;;5033745;28;20182;-70
2023/11/30 06:10:45;;;;;;;86.47;26.57;;;;;;;;;;5034850;28;20276;-71
2023/11/30 06:13:12;;;;;;;65.83;25.57;;;;;;;;;;5035698;28;20320;-70
2023/11/30 06:15:38;;;;;;;65.30;24.50;;;;;;;;;;5027277;28;20218;-70
2023/11/30 06:18:03;;;;;;;61.53;25.13;;;;;;;;;;5014168;28;20213;-70
2023/11/30 06:20:31;;;;;;;65.37;25.77;;;;;;;;;;5025188;28;20190;-70
2023/11/30 06:22:56;;;;;;;52.47;22.60;;;;;;;;;;5041504;28;20202;-70
2023/11/30 06:25:22;;;;;;;55.23;25.13;;;;;;;;;;5030655;28;20553;-70
2023/11/30 06:27:47;;;;;;;60.57;25.70;;;;;;;;;;5023705;28;20570;-70
2023/11/30 06:30:13;;;;;;;56.73;25.37;;;;;;;;;;5027713;28;20205;-71
2023/11/30 06:32:38;;;;;;;55.67;25.17;;;;;;;;;;5031498;28;20691;-70
2023/11/30 06:35:05;;;;;;;55.60;24.60;;;;;;;;;;5037177;28;20611;-70
2023/11/30 06:37:30;;;;;;;53.63;26.03;;;;;;;;;;5028165;28;20602;-70
2023/11/30 06:39:56;;;;;;;54.53;23.70;;;;;;;;;;5039505;28;20179;-71
2023/11/30 06:42:21;;;;;;;68.03;25.47;;;;;;;;;;5026841;28;20288;-70
2023/11/30 06:44:47;;;;;;;57.17;25.10;;;;;;;;;;5026249;28;20214;-70
2023/11/30 06:47:13;;;;;;;54.40;24.00;;;;;;;;;;5027624;28;20193;-71
2023/11/30 06:49:39;;;;;;;68.43;26.37;;;;;;;;;;5026678;28;20208;-71
2023/11/30 06:52:04;;;;;;;48.07;22.90;;;;;;;;;;5027948;28;20186;-70
2023/11/30 06:54:30;;;;;;;62.80;26.07;;;;;;;;;;5033242;28;20846;-71
2023/11/30 06:56:56;;;;;;;52.13;23.73;;;;;;;;;;5029527;28;20190;-70
2023/11/30 06:59:21;;;;;;;55.67;24.07;;;;;;;;;;5028886;28;20189;-70
2023/11/30 07:01:47;;;;;;;56.43;24.67;;;;;;;;;;5035175;28;20292;-70
2023/11/30 07:04:12;;;;;;;60.67;24.63;;;;;;;;;;5032797;28;20210;-70
2023/11/30 07:06:38;;;;;;;59.67;26.03;;;;;;;;;;5033857;28;20194;-71
2023/11/30 07:09:05;;;;;;;60.60;24.57;;;;;;;;;;5029830;28;20613;-71
2023/11/30 07:11:31;;;;;;;60.30;24.63;;;;;;;;;;5036701;28;20627;-70
2023/11/30 07:13:57;;;;;;;76.63;26.57;;;;;;;;;;5012132;28;20179;-71
2023/11/30 07:16:22;;;;;;;73.27;26.67;;;;;;;;;;5025526;28;20193;-71
2023/11/30 07:18:48;;;;;;;56.43;24.43;;;;;;;;;;5019544;28;20198;-71
2023/11/30 07:21:17;;;;;;;65.60;27.03;;;;;;;;;;5027096;28;20205;-71
2023/11/30 07:23:43;;;;;;;56.90;25.17;;;;;;;;;;5037179;28;20210;-70
2023/11/30 07:26:13;;;;;;;57.33;25.27;;;;;;;;;;5033462;28;20565;-71
2023/11/30 07:28:39;;;;;;;69.83;26.70;;;;;;;;;;5025869;28;20689;-71
2023/11/30 07:31:05;;;;;;;58.40;26.00;;;;;;;;;;5036175;28;20494;-71
2023/11/30 07:33:30;;;;;;;62.77;25.90;;;;;;;;;;5036311;28;20184;-70
2023/11/30 07:35:55;;;;;;;59.93;25.50;;;;;;;;;;5022381;28;20247;-71
2023/11/30 07:38:21;;;;;;;58.57;25.80;;;;;;;;;;5039195;28;20291;-71
2023/11/30 07:40:47;;;;;;;55.67;24.30;;;;;;;;;;5033733;28;20278;-71
2023/11/30 07:43:12;;;;;;;53.35;25.90;;;;;;;;;;5026537;28;20567;-71
2023/11/30 07:45:38;;;;;;;55.30;24.87;;;;;;;;;;5029051;28;20430;-71
2023/11/30 07:48:04;;;;;;;53.37;25.87;;;;;;;;;;5029356;28;20265;-71
2023/11/30 07:50:30;;;;;;;58.00;26.67;;;;;;;;;;5022481;28;20610;-71
2023/11/30 07:52:56;;;;;;;57.33;26.17;;;;;;;;;;5022731;28;20189;-71
2023/11/30 07:55:21;;;;;;;55.90;26.77;;;;;;;;;;5036979;28;20197;-70
2023/11/30 07:57:48;;;;;;;57.20;26.67;;;;;;;;;;5029827;28;20213;-71
2023/11/30 08:00:15;;;;;;;56.13;27.40;;;;;;;;;;5025814;28;20273;-71
2023/11/30 08:02:43;;;;;;;57.67;26.57;;;;;;;;;;5031394;28;20187;-70
2023/11/30 08:05:09;;;;;;;63.60;26.77;;;;;;;;;;5034158;28;20313;-71
2023/11/30 08:07:34;;;;;;;59.57;28.03;;;;;;;;;;5028146;28;20305;-71
2023/11/30 08:10:00;;;;;;;61.70;26.53;;;;;;;;;;5020953;28;20183;-70
2023/11/30 08:12:25;;;;;;;60.30;26.53;;;;;;;;;;5037585;28;20303;-71
2023/11/30 08:14:50;;;;;;;57.70;26.00;;;;;;;;;;5037011;28;20186;-71
2023/11/30 08:17:16;;;;;;;59.33;26.40;;;;;;;;;;5037689;28;20272;-71
2023/11/30 08:19:41;;;;;;;67.87;28.77;;;;;;;;;;5036240;28;20202;-71
2023/11/30 08:22:07;;;;;;;56.40;27.03;;;;;;;;;;5035478;28;20191;-71
2023/11/30 08:24:32;;;;;;;68.20;29.20;;;;;;;;;;5032456;28;20221;-71
2023/11/30 08:26:59;;;;;;;62.90;28.03;;;;;;;;;;5032444;28;20178;-71
2023/11/30 08:29:25;;;;;;;56.53;27.27;;;;;;;;;;5029639;28;20546;-71
2023/11/30 08:31:50;;;;;;;62.63;27.43;;;;;;;;;;5017927;28;20186;-71
2023/11/30 08:34:15;;;;;;;64.70;28.00;;;;;;;;;;5012775;28;20237;-71
2023/11/30 08:36:41;;;;;;;69.83;29.47;;;;;;;;;;5016062;28;20201;-70
2023/11/30 08:39:07;;;;;;;59.40;26.83;;;;;;;;;;5028886;28;20665;-70
2023/11/30 08:41:34;;;;;;;60.77;27.50;;;;;;;;;;5024471;28;20541;-70
2023/11/30 08:43:59;;;;;;;66.60;27.63;;;;;;;;;;5026259;28;20209;-70
2023/11/30 08:46:25;;;;;;;59.73;27.50;;;;;;;;;;5022232;28;20186;-70
2023/11/30 08:48:50;;;;;;;62.20;27.53;;;;;;;;;;5019246;28;20186;-70
2023/11/30 08:51:16;;;;;;;63.07;27.70;;;;;;;;;;5029859;28;20202;-70
2023/11/30 08:53:41;;;;;;;61.33;27.27;;;;;;;;;;5027827;28;20681;-70
2023/11/30 08:56:07;;;;;;;67.17;26.60;;;;;;;;;;5022340;28;20198;-70
2023/11/30 08:58:33;;;;;;;64.30;28.70;;;;;;;;;;5020391;28;20190;-70
2023/11/30 09:00:58;;;;;;;63.77;27.13;;;;;;;;;;5027911;28;20189;-70
2023/11/30 09:03:24;;;;;;;60.57;26.37;;;;;;;;;;5027295;28;20239;-70
2023/11/30 09:05:50;;;;;;;60.47;27.20;;;;;;;;;;5010588;28;20249;-70
2023/11/30 09:08:15;;;;;;;65.33;28.10;;;;;;;;;;5028909;28;20190;-70
2023/11/30 09:10:41;;;;;;;60.03;27.40;;;;;;;;;;5028207;28;20560;-70
2023/11/30 09:13:07;;;;;;;62.57;27.33;;;;;;;;;;5028388;28;20238;-70
2023/11/30 09:15:33;;;;;;;64.60;28.67;;;;;;;;;;5028267;28;20261;-70
2023/11/30 09:18:01;;;;;;;62.73;28.87;;;;;;;;;;5025807;28;20206;-70
2023/11/30 09:20:27;;;;;;;68.80;29.87;;;;;;;;;;5017884;28;20208;-70
2023/11/30 09:22:53;;;;;;;70.90;29.73;;;;;;;;;;4997149;28;20268;-70
2023/11/30 09:25:18;;;;;;;75.33;31.43;;;;;;;;;;5019431;28;20695;-70
2023/11/30 09:27:44;;;;;;;67.23;29.57;;;;;;;;;;5021948;28;20518;-70
2023/11/30 09:30:10;;;;;;;69.23;30.33;;;;;;;;;;5032846;28;20304;-70
2023/11/30 09:32:36;;;;;;;65.77;29.63;;;;;;;;;;5022569;28;20194;-70
2023/11/30 09:35:03;;;;;;;66.60;30.07;;;;;;;;;;5014224;28;20256;-70
2023/11/30 09:37:29;;;;;;;65.67;29.90;;;;;;;;;;5027779;28;20189;-70
2023/11/30 09:39:54;;;;;;;68.50;29.57;;;;;;;;;;5028753;28;20178;-70
2023/11/30 09:42:20;;;;;;;72.07;29.07;;;;;;;;;;5028514;28;20257;-70
2023/11/30 09:44:45;;;;;;;69.87;28.43;;;;;;;;;;5021281;28;20561;-70
2023/11/30 09:47:11;;;;;;;76.27;29.90;;;;;;;;;;5013314;28;20670;-71
2023/11/30 09:49:39;;;;;;;78.30;30.80;;;;;;;;;;5027424;28;20273;-71
2023/11/30 09:52:05;;;;;;;80.20;30.67;;;;;;;;;;5024492;28;20186;-71
2023/11/30 09:54:31;;;;;;;74.17;30.23;;;;;;;;;;5025050;28;20557;-71
2023/11/30 09:56:57;;;;;;;77.67;30.90;;;;;;;;;;5018747;28;20234;-71
2023/11/30 09:59:23;;;;;;;75.37;32.17;;;;;;;;;;5018302;28;20671;-71
2023/11/30 10:01:49;;;;;;;73.67;31.23;;;;;;;;;;5029701;28;20187;-71
2023/11/30 10:04:15;;;;;;;72.43;29.33;;;;;;;;;;5027759;28;20218;-71
2023/11/30 10:06:41;;;;;;;82.60;33.33;;;;;;;;;;5023556;28;20251;-71
2023/11/30 10:09:13;;;;;;;76.63;32.40;;;;;;;;;;5021491;28;20646;-71
2023/11/30 10:11:42;;;;;;;76.30;31.43;;;;;;;;;;5027110;28;20371;-71
2023/11/30 10:14:09;;;;;;;77.87;31.03;;;;;;;;;;5028200;28;20182;-71
2023/11/30 10:16:35;;;;;;;90.27;34.20;;;;;;;;;;5027488;28;20183;-71
2023/11/30 10:19:04;;;;;;;85.50;34.07;;;;;;;;;;5024630;28;20209;-71
2023/11/30 10:21:30;;;;;;;82.67;33.37;;;;;;;;;;5022576;28;20191;-71
2023/11/30 10:23:57;;;;;;;91.03;33.83;;;;;;;;;;5021704;28;20206;-71
2023/11/30 10:26:24;;;;;;;97.00;34.80;;;;;;;;;;5033189;28;20283;-72
2023/11/30 10:28:52;;;;;;;72.33;31.90;;;;;;;;;;5029707;28;20182;-72
2023/11/30 10:31:21;;;;;;;79.37;31.77;;;;;;;;;;5027781;28;20534;-71
2023/11/30 10:34:04;;;;;;;82.53;31.50;;;;;;;;;;5031242;28;20556;-72
2023/11/30 10:36:32;;;;;;;75.30;31.13;;;;;;;;;;5028210;28;20269;-72
2023/11/30 10:39:22;;;;;;;79.23;32.47;;;;;;;;;;5026786;28;20637;-72
2023/11/30 10:41:55;;;;;;;76.20;30.90;;;;;;;;;;5037787;28;20190;-72
2023/11/30 10:44:26;;;;;;;79.73;32.00;;;;;;;;;;5016526;28;20560;-72
2023/11/30 10:46:54;;;;;;;79.80;32.67;;;;;;;;;;5031216;28;20652;-72
2023/11/30 10:49:22;;;;;;;95.00;31.80;;;;;;;;;;5025499;28;20209;-73
2023/11/30 10:51:53;;;;;;;90.20;33.23;;;;;;;;;;5027154;28;20198;-73
2023/11/30 10:54:28;;;;;;;90.83;29.70;;;;;;;;;;5027292;28;20182;-73
2023/11/30 10:56:54;;;;;;;71.47;30.43;;;;;;;;;;5021973;28;20272;-72
2023/11/30 10:59:23;;;;;;;73.93;32.20;;;;;;;;;;5013471;28;20328;-72
2023/11/30 11:01:49;;;;;;;76.57;32.70;;;;;;;;;;5024478;28;20236;-72
2023/11/30 11:04:15;;;;;;;80.83;32.23;;;;;;;;;;5026536;28;20785;-72
2023/11/30 11:06:42;;;;;;;73.43;32.57;;;;;;;;;;5027855;28;20226;-72
2023/11/30 11:09:11;;;;;;;89.47;31.93;;;;;;;;;;5028708;28;20194;-72
2023/11/30 11:11:40;;;;;;;77.07;32.30;;;;;;;;;;5030906;28;20615;-72
2023/11/30 11:14:06;;;;;;;72.07;30.60;;;;;;;;;;5022621;28;20194;-72
2023/11/30 11:16:36;;;;;;;75.20;32.63;;;;;;;;;;5026682;28;20252;-72
2023/11/30 11:19:05;;;;;;;81.20;31.73;;;;;;;;;;5036287;28;20226;-73
2023/11/30 11:21:36;;;;;;;75.47;33.07;;;;;;;;;;5029065;28;20266;-73
2023/11/30 11:24:03;;;;;;;78.10;34.37;;;;;;;;;;5016435;28;20230;-73
2023/11/30 11:26:47;;;;;;;81.53;33.57;;;;;;;;;;5020538;28;20186;-73
2023/11/30 11:29:14;;;;;;;78.17;32.83;;;;;;;;;;5025692;28;20198;-73
2023/11/30 11:31:43;;;;;;;86.60;34.53;;;;;;;;;;5018036;28;20196;-73
2023/11/30 11:34:09;;;;;;;85.97;32.43;;;;;;;;;;5023399;28;20178;-73
2023/11/30 11:36:38;;;;;;;82.93;32.27;;;;;;;;;;5025342;28;20186;-72
2023/11/30 11:39:05;;;;;;;75.80;32.13;;;;;;;;;;5029930;28;20200;-72
2023/11/30 11:41:31;;;;;;;83.80;32.93;;;;;;;;;;5013946;28;20190;-73
2023/11/30 11:43:56;;;;;;;86.87;31.37;;;;;;;;;;5026785;28;20221;-73
2023/11/30 11:46:22;;;;;;;87.83;33.50;;;;;;;;;;5027336;28;20193;-74
2023/11/30 11:48:48;;;;;;;96.93;34.50;;;;;;;;;;5030115;28;20285;-73
2023/11/30 11:51:13;;;;;;;88.47;35.00;;;;;;;;;;5029392;28;20243;-73
2023/11/30 11:53:40;;;;;;;91.40;35.63;;;;;;;;;;5018262;28;20293;-74
2023/11/30 11:56:07;;;;;;;89.73;35.17;;;;;;;;;;5027154;28;20269;-73
2023/11/30 11:58:39;;;;;;;94.13;36.90;;;;;;;;;;5028317;28;20190;-73
2023/11/30 12:01:04;;;;;;;92.50;35.43;;;;;;;;;;5027877;28;20209;-73
2023/11/30 12:03:31;;;;;;;96.23;36.63;;;;;;;;;;5029262;28;20178;-72
2023/11/30 12:05:59;;;;;;;101.20;37.03;;;;;;;;;;5026185;28;20186;-73
2023/11/30 12:08:31;;;;;;;105.57;37.57;;;;;;;;;;5019298;28;20199;-74
2023/11/30 12:10:57;;;;;;;103.00;37.37;;;;;;;;;;5023188;28;20182;-74
2023/11/30 12:13:26;;;;;;;98.27;37.90;;;;;;;;;;5030405;28;20578;-73
2023/11/30 12:15:53;;;;;;;100.90;38.50;;;;;;;;;;5030329;28;20613;-74
2023/11/30 12:18:19;;;;;;;100.43;40.50;;;;;;;;;;5027873;28;20273;-74
2023/11/30 12:20:44;;;;;;;112.43;41.53;;;;;;;;;;5030463;28;20178;-73
2023/11/30 12:23:12;;;;;;;106.67;40.60;;;;;;;;;;5021549;28;20187;-74
2023/11/30 12:25:38;;;;;;;130.40;40.97;;;;;;;;;;5022558;28;20689;-74
2023/11/30 12:28:04;;;;;;;113.10;40.57;;;;;;;;;;5048444;28;20178;-74
2023/11/30 12:30:29;;;;;;;130.43;39.27;;;;;;;;;;5028818;28;20201;-74
2023/11/30 12:32:54;;;;;;;121.67;40.27;;;;;;;;;;5033441;28;20541;-74
2023/11/30 12:35:20;;;;;;;125.73;41.77;;;;;;;;;;5024270;28;20185;-74
2023/11/30 12:37:46;;;;;;;121.23;39.40;;;;;;;;;;5020438;28;20187;-74
2023/11/30 12:40:13;;;;;;;137.47;43.23;;;;;;;;;;5029423;28;20609;-74
2023/11/30 12:42:39;;;;;;;124.17;39.77;;;;;;;;;;5015908;28;20498;-74
2023/11/30 12:45:05;;;;;;;129.63;41.90;;;;;;;;;;5008449;28;20308;-74
2023/11/30 12:47:31;;;;;;;122.87;40.10;;;;;;;;;;5042486;28;20178;-73
2023/11/30 12:49:56;;;;;;;121.20;41.13;;;;;;;;;;5023419;28;20185;-74
2023/11/30 12:52:22;;;;;;;122.93;39.90;;;;;;;;;;5026120;28;20213;-73
2023/11/30 12:54:51;;;;;;;124.03;39.43;;;;;;;;;;5023545;28;20217;-73
2023/11/30 12:57:17;;;;;;;119.60;39.40;;;;;;;;;;5006817;28;20187;-74
2023/11/30 12:59:43;;;;;;;115.63;38.53;;;;;;;;;;5019498;28;20182;-74
2023/11/30 13:02:09;;;;;;;118.37;39.07;;;;;;;;;;5020032;28;20190;-73
2023/11/30 13:04:35;;;;;;;133.57;40.30;;;;;;;;;;5010619;28;20678;-73
2023/11/30 13:07:00;;;;;;;119.10;39.37;;;;;;;;;;5009584;28;20179;-74
2023/11/30 13:09:26;;;;;;;110.20;40.47;;;;;;;;;;5024412;28;20304;-73
2023/11/30 13:11:52;;;;;;;111.27;38.70;;;;;;;;;;5029057;28;20226;-74
2023/11/30 13:14:18;;;;;;;121.50;39.77;;;;;;;;;;5026876;28;20213;-74
2023/11/30 13:16:43;;;;;;;110.57;38.10;;;;;;;;;;5043694;28;20205;-73
2023/11/30 13:19:09;;;;;;;109.77;39.37;;;;;;;;;;5027322;28;20206;-73
2023/11/30 13:21:35;;;;;;;97.13;36.47;;;;;;;;;;5031748;28;20205;-74
2023/11/30 13:24:00;;;;;;;110.97;39.50;;;;;;;;;;5018281;28;20206;-73
2023/11/30 13:26:25;;;;;;;105.53;37.73;;;;;;;;;;5026594;28;20492;-74
2023/11/30 13:28:51;;;;;;;102.47;36.87;;;;;;;;;;5033497;28;20186;-74
2023/11/30 13:31:16;;;;;;;98.57;36.07;;;;;;;;;;5020087;28;20213;-74
2023/11/30 13:33:43;;;;;;;99.13;37.00;;;;;;;;;;5020416;28;20276;-74
2023/11/30 13:36:09;;;;;;;109.73;37.80;;;;;;;;;;5025188;28;20312;-74
2023/11/30 13:38:35;;;;;;;101.57;38.13;;;;;;;;;;5029279;28;20194;-74
2023/11/30 13:41:00;;;;;;;102.53;37.10;;;;;;;;;;5022969;28;20186;-74
2023/11/30 13:43:26;;;;;;;107.60;38.30;;;;;;;;;;5023343;28;20875;-74
2023/11/30 13:45:52;;;;;;;103.73;37.67;;;;;;;;;;5024438;28;20190;-74
2023/11/30 13:48:17;;;;;;;101.63;40.23;;;;;;;;;;5022487;28;20221;-74
2023/11/30 13:50:46;;;;;;;109.97;40.80;;;;;;;;;;5026780;28;20205;-74
2023/11/30 13:53:15;;;;;;;119.70;42.33;;;;;;;;;;5011816;28;20194;-73
2023/11/30 13:55:42;;;;;;;126.37;43.90;;;;;;;;;;5023111;28;20239;-74
2023/11/30 13:58:07;;;;;;;114.03;43.33;;;;;;;;;;5010341;28;20178;-74
2023/11/30 14:00:34;;;;;;;119.50;42.87;;;;;;;;;;5015141;28;20182;-74
2023/11/30 14:03:00;;;;;;;119.90;44.43;;;;;;;;;;5038862;28;20240;-74
2023/11/30 14:05:25;;;;;;;114.27;42.87;;;;;;;;;;5033147;28;20676;-74
2023/11/30 14:07:51;;;;;;;124.30;42.67;;;;;;;;;;5030287;28;20649;-74
2023/11/30 14:10:16;;;;;;;121.53;41.67;;;;;;;;;;5028027;28;20669;-74